sensor_id;sensor_type;location;lat;lon;timestamp;pressure;altitude;pressure_sealevel;temperature;humidity
12951;BME280;6540;50.858;7.232;2023-01-28T00:00:30;51907.00;;;-142.34;28.17
12951;BME280;6540;50.858;7.232;2023-01-28T00:02:56;51991.72;;;-142.34;27.95
12951;BME280;6540;50.858;7.232;2023-01-28T00:05:21;51963.47;;;-142.34;27.71
12951;BME280;6540;50.858;7.232;2023-01-28T00:07:50;51959.44;;;-142.34;28.39
12951;BME280;6540;50.858;7.232;2023-01-28T00:10:16;51935.25;;;-142.34;28.35
12951;BME280;6540;50.858;7.232;2023-01-28T00:12:41;51983.66;;;-142.34;28.06
12951;BME280;6540;50.858;7.232;2023-01-28T00:15:07;51947.34;;;-142.34;28.30
12951;BME280;6540;50.858;7.232;2023-01-28T00:17:33;51925.16;;;-142.34;27.78
12951;BME280;6540;50.858;7.232;2023-01-28T00:19:58;51945.31;;;-142.34;28.90
12951;BME280;6540;50.858;7.232;2023-01-28T00:22:23;51975.59;;;-142.34;28.09
12951;BME280;6540;50.858;7.232;2023-01-28T00:24:49;51955.41;;;-142.34;27.84
12951;BME280;6540;50.858;7.232;2023-01-28T00:27:14;51939.28;;;-142.34;28.27
12951;BME280;6540;50.858;7.232;2023-01-28T00:29:39;51947.34;;;-142.34;28.06
12951;BME280;6540;50.858;7.232;2023-01-28T00:32:05;51937.25;;;-142.34;27.70
12951;BME280;6540;50.858;7.232;2023-01-28T00:34:30;51961.47;;;-142.34;28.33
12951;BME280;6540;50.858;7.232;2023-01-28T00:36:55;51953.41;;;-142.34;28.08
12951;BME280;6540;50.858;7.232;2023-01-28T00:39:25;51923.13;;;-142.34;27.56
12951;BME280;6540;50.858;7.232;2023-01-28T00:41:51;51902.97;;;-142.34;28.00
12951;BME280;6540;50.858;7.232;2023-01-28T00:44:17;51931.19;;;-142.34;28.24
12951;BME280;6540;50.858;7.232;2023-01-28T00:46:43;51931.19;;;-142.34;27.71
12951;BME280;6540;50.858;7.232;2023-01-28T00:49:08;51917.06;;;-142.34;27.73
12951;BME280;6540;50.858;7.232;2023-01-28T00:51:34;51931.19;;;-142.34;28.08
12951;BME280;6540;50.858;7.232;2023-01-28T00:54:00;51971.53;;;-142.34;28.12
12951;BME280;6540;50.858;7.232;2023-01-28T00:56:25;51951.38;;;-142.34;28.26
12951;BME280;6540;50.858;7.232;2023-01-28T00:58:51;51959.44;;;-142.34;27.85
12951;BME280;6540;50.858;7.232;2023-01-28T01:01:22;51943.31;;;-142.34;28.42
12951;BME280;6540;50.858;7.232;2023-01-28T01:03:48;51933.22;;;-142.34;28.19
12951;BME280;6540;50.858;7.232;2023-01-28T01:06:23;51955.41;;;-142.34;28.33
12951;BME280;6540;50.858;7.232;2023-01-28T01:08:49;51925.16;;;-142.34;28.07
12951;BME280;6540;50.858;7.232;2023-01-28T01:11:16;51919.09;;;-142.34;28.02
12951;BME280;6540;50.858;7.232;2023-01-28T01:13:42;51949.34;;;-142.34;28.24
12951;BME280;6540;50.858;7.232;2023-01-28T01:16:08;51919.09;;;-142.34;28.41
12951;BME280;6540;50.858;7.232;2023-01-28T01:18:35;51929.19;;;-142.34;28.68
12951;BME280;6540;50.858;7.232;2023-01-28T01:21:01;51943.31;;;-142.34;29.00
12951;BME280;6540;50.858;7.232;2023-01-28T01:23:28;51902.97;;;-142.34;28.15
12951;BME280;6540;50.858;7.232;2023-01-28T01:25:54;51945.31;;;-142.34;28.28
12951;BME280;6540;50.858;7.232;2023-01-28T01:28:20;51945.31;;;-142.34;28.20
12951;BME280;6540;50.858;7.232;2023-01-28T01:30:47;51943.31;;;-142.34;28.61
12951;BME280;6540;50.858;7.232;2023-01-28T01:33:13;51947.34;;;-142.34;28.09
12951;BME280;6540;50.858;7.232;2023-01-28T01:35:38;51953.41;;;-142.34;28.10
12951;BME280;6540;50.858;7.232;2023-01-28T01:38:04;51975.59;;;-142.34;29.14
12951;BME280;6540;50.858;7.232;2023-01-28T01:40:30;51955.41;;;-142.34;29.45
12951;BME280;6540;50.858;7.232;2023-01-28T01:42:55;51957.44;;;-142.34;28.63
12951;BME280;6540;50.858;7.232;2023-01-28T01:45:21;51983.66;;;-142.34;28.90
12951;BME280;6540;50.858;7.232;2023-01-28T01:50:33;51925.16;;;-142.34;28.29
12951;BME280;6540;50.858;7.232;2023-01-28T01:53:13;51939.28;;;-142.34;28.17
12951;BME280;6540;50.858;7.232;2023-01-28T01:55:43;51933.22;;;-142.34;28.21
12951;BME280;6540;50.858;7.232;2023-01-28T01:58:13;51943.31;;;-142.34;28.51
12951;BME280;6540;50.858;7.232;2023-01-28T02:00:41;51959.44;;;-142.34;28.36
12951;BME280;6540;50.858;7.232;2023-01-28T02:03:10;51959.44;;;-142.34;28.29
12951;BME280;6540;50.858;7.232;2023-01-28T02:05:36;51983.66;;;-142.34;28.21
12951;BME280;6540;50.858;7.232;2023-01-28T02:08:03;51939.28;;;-142.34;28.52
12951;BME280;6540;50.858;7.232;2023-01-28T02:11:01;51931.19;;;-142.34;28.55
12951;BME280;6540;50.858;7.232;2023-01-28T02:13:32;51961.47;;;-142.34;28.57
12951;BME280;6540;50.858;7.232;2023-01-28T02:15:59;51963.47;;;-142.34;28.81
12951;BME280;6540;50.858;7.232;2023-01-28T02:18:26;51907.00;;;-142.34;28.24
12951;BME280;6540;50.858;7.232;2023-01-28T02:29:45;51915.06;;;-142.34;28.24
12951;BME280;6540;50.858;7.232;2023-01-28T02:32:16;51951.38;;;-142.34;28.41
12951;BME280;6540;50.858;7.232;2023-01-28T02:34:55;51939.28;;;-142.34;28.44
12951;BME280;6540;50.858;7.232;2023-01-28T02:40:00;51943.31;;;-142.34;28.56
12951;BME280;6540;50.858;7.232;2023-01-28T02:42:29;51949.34;;;-142.34;28.67
12951;BME280;6540;50.858;7.232;2023-01-28T02:44:55;51941.28;;;-142.34;28.30
12951;BME280;6540;50.858;7.232;2023-01-28T02:47:21;51963.47;;;-142.34;28.41
12951;BME280;6540;50.858;7.232;2023-01-28T02:50:08;51931.19;;;-142.34;28.49
12951;BME280;6540;50.858;7.232;2023-01-28T02:52:54;51919.09;;;-142.34;28.39
12951;BME280;6540;50.858;7.232;2023-01-28T03:00:41;51949.34;;;-142.34;28.32
12951;BME280;6540;50.858;7.232;2023-01-28T03:03:19;51957.44;;;-142.34;28.24
12951;BME280;6540;50.858;7.232;2023-01-28T03:05:55;51957.44;;;-142.34;28.19
12951;BME280;6540;50.858;7.232;2023-01-28T03:08:34;51937.25;;;-142.34;28.22
12951;BME280;6540;50.858;7.232;2023-01-28T03:11:20;51933.22;;;-142.34;28.29
12951;BME280;6540;50.858;7.232;2023-01-28T03:14:05;51985.66;;;-142.34;28.15
12951;BME280;6540;50.858;7.232;2023-01-28T03:16:50;51951.38;;;-142.34;28.88
12951;BME280;6540;50.858;7.232;2023-01-28T03:19:35;51923.13;;;-142.34;28.28
12951;BME280;6540;50.858;7.232;2023-01-28T03:22:20;51951.38;;;-142.34;28.41
12951;BME280;6540;50.858;7.232;2023-01-28T03:25:05;51973.56;;;-142.34;28.05
12951;BME280;6540;50.858;7.232;2023-01-28T03:27:56;51951.38;;;-142.34;28.19
12951;BME280;6540;50.858;7.232;2023-01-28T03:33:49;51925.16;;;-142.34;28.54
12951;BME280;6540;50.858;7.232;2023-01-28T03:36:34;51900.94;;;-142.34;29.30
12951;BME280;6540;50.858;7.232;2023-01-28T03:39:30;51925.16;;;-142.34;28.88
12951;BME280;6540;50.858;7.232;2023-01-28T03:41:56;51971.53;;;-142.34;28.62
12951;BME280;6540;50.858;7.232;2023-01-28T03:44:23;51963.47;;;-142.34;28.83
12951;BME280;6540;50.858;7.232;2023-01-28T03:47:08;51915.06;;;-142.34;28.93
12951;BME280;6540;50.858;7.232;2023-01-28T03:49:37;51925.16;;;-142.34;29.21
12951;BME280;6540;50.858;7.232;2023-01-28T03:52:02;51911.03;;;-142.34;29.36
12951;BME280;6540;50.858;7.232;2023-01-28T03:54:27;51907.00;;;-142.34;29.24
12951;BME280;6540;50.858;7.232;2023-01-28T03:56:53;52015.94;;;-142.34;28.78
12951;BME280;6540;50.858;7.232;2023-01-28T03:59:18;51951.38;;;-142.34;29.04
12951;BME280;6540;50.858;7.232;2023-01-28T04:01:43;51939.28;;;-142.34;29.04
12951;BME280;6540;50.858;7.232;2023-01-28T04:04:09;51951.38;;;-142.34;29.48
12951;BME280;6540;50.858;7.232;2023-01-28T04:06:47;51943.31;;;-142.34;28.96
12951;BME280;6540;50.858;7.232;2023-01-28T04:09:12;51963.47;;;-142.34;29.99
12951;BME280;6540;50.858;7.232;2023-01-28T04:11:37;51965.50;;;-142.34;29.30
12951;BME280;6540;50.858;7.232;2023-01-28T04:14:03;51981.63;;;-142.34;29.19
12951;BME280;6540;50.858;7.232;2023-01-28T04:16:28;51941.28;;;-142.34;28.58
12951;BME280;6540;50.858;7.232;2023-01-28T04:18:53;51947.34;;;-142.34;28.45
12951;BME280;6540;50.858;7.232;2023-01-28T04:21:19;51955.41;;;-142.34;28.28
12951;BME280;6540;50.858;7.232;2023-01-28T04:23:45;51959.44;;;-142.34;28.56
12951;BME280;6540;50.858;7.232;2023-01-28T04:26:10;51959.44;;;-142.34;28.36
12951;BME280;6540;50.858;7.232;2023-01-28T04:28:35;51955.41;;;-142.34;28.73
12951;BME280;6540;50.858;7.232;2023-01-28T04:31:01;51949.34;;;-142.34;28.31
12951;BME280;6540;50.858;7.232;2023-01-28T04:33:26;52001.81;;;-142.34;28.38
12951;BME280;6540;50.858;7.232;2023-01-28T04:35:52;51971.53;;;-142.34;28.93
12951;BME280;6540;50.858;7.232;2023-01-28T04:38:17;51943.31;;;-142.34;28.39
12951;BME280;6540;50.858;7.232;2023-01-28T04:40:42;51971.53;;;-142.34;28.23
12951;BME280;6540;50.858;7.232;2023-01-28T04:43:08;51925.16;;;-142.34;28.68
12951;BME280;6540;50.858;7.232;2023-01-28T04:45:33;51933.22;;;-142.34;28.32
12951;BME280;6540;50.858;7.232;2023-01-28T04:47:58;51955.41;;;-142.34;28.66
12951;BME280;6540;50.858;7.232;2023-01-28T04:50:24;51987.69;;;-142.34;28.65
12951;BME280;6540;50.858;7.232;2023-01-28T04:52:49;51997.78;;;-142.34;28.31
12951;BME280;6540;50.858;7.232;2023-01-28T04:55:15;52001.81;;;-142.34;28.30
12951;BME280;6540;50.858;7.232;2023-01-28T04:57:40;51975.59;;;-142.34;28.68
12951;BME280;6540;50.858;7.232;2023-01-28T05:00:06;51967.50;;;-142.34;28.80
12951;BME280;6540;50.858;7.232;2023-01-28T05:02:31;51975.59;;;-142.34;28.62
12951;BME280;6540;50.858;7.232;2023-01-28T05:04:57;51951.38;;;-142.34;28.81
12951;BME280;6540;50.858;7.232;2023-01-28T05:07:22;51995.75;;;-142.34;28.73
12951;BME280;6540;50.858;7.232;2023-01-28T05:09:48;51955.41;;;-142.34;28.32
12951;BME280;6540;50.858;7.232;2023-01-28T05:12:13;51963.47;;;-142.34;28.49
12951;BME280;6540;50.858;7.232;2023-01-28T05:14:38;51977.59;;;-142.34;28.72
12951;BME280;6540;50.858;7.232;2023-01-28T05:17:04;51975.59;;;-142.34;28.41
12951;BME280;6540;50.858;7.232;2023-01-28T05:19:29;51955.41;;;-142.34;28.33
12951;BME280;6540;50.858;7.232;2023-01-28T05:21:54;51981.63;;;-142.34;28.46
12951;BME280;6540;50.858;7.232;2023-01-28T05:24:20;51967.50;;;-142.34;28.66
12951;BME280;6540;50.858;7.232;2023-01-28T05:26:45;51959.44;;;-142.34;28.83
12951;BME280;6540;50.858;7.232;2023-01-28T05:29:11;51949.34;;;-142.34;28.47
12951;BME280;6540;50.858;7.232;2023-01-28T05:31:36;51951.38;;;-142.34;28.87
12951;BME280;6540;50.858;7.232;2023-01-28T05:34:02;51904.97;;;-142.34;29.24
12951;BME280;6540;50.858;7.232;2023-01-28T05:36:27;51993.75;;;-142.34;29.09
12951;BME280;6540;50.858;7.232;2023-01-28T05:38:52;51935.25;;;-142.34;29.14
12951;BME280;6540;50.858;7.232;2023-01-28T05:41:18;51919.09;;;-142.34;29.07
12951;BME280;6540;50.858;7.232;2023-01-28T05:43:43;51947.34;;;-142.34;28.97
12951;BME280;6540;50.858;7.232;2023-01-28T05:46:08;51949.34;;;-142.34;29.31
12951;BME280;6540;50.858;7.232;2023-01-28T05:48:34;51971.53;;;-142.34;28.71
12951;BME280;6540;50.858;7.232;2023-01-28T05:50:59;51975.59;;;-142.34;28.58
12951;BME280;6540;50.858;7.232;2023-01-28T05:53:32;51945.31;;;-142.34;28.67
12951;BME280;6540;50.858;7.232;2023-01-28T05:55:57;51941.28;;;-142.34;28.75
12951;BME280;6540;50.858;7.232;2023-01-28T05:58:22;51955.41;;;-142.34;28.38
12951;BME280;6540;50.858;7.232;2023-01-28T06:00:48;51991.72;;;-142.34;28.29
12951;BME280;6540;50.858;7.232;2023-01-28T06:03:13;51973.56;;;-142.34;28.14
12951;BME280;6540;50.858;7.232;2023-01-28T06:05:38;51991.72;;;-142.34;28.75
12951;BME280;6540;50.858;7.232;2023-01-28T06:08:05;51957.44;;;-142.34;28.80
12951;BME280;6540;50.858;7.232;2023-01-28T06:10:31;51955.41;;;-142.34;29.11
12951;BME280;6540;50.858;7.232;2023-01-28T06:12:56;51951.38;;;-142.34;29.12
12951;BME280;6540;50.858;7.232;2023-01-28T06:15:22;51943.31;;;-142.34;29.53
12951;BME280;6540;50.858;7.232;2023-01-28T06:17:47;51923.13;;;-142.34;29.66
12951;BME280;6540;50.858;7.232;2023-01-28T06:20:12;51959.44;;;-142.34;28.89
12951;BME280;6540;50.858;7.232;2023-01-28T06:22:38;51987.69;;;-142.34;28.20
12951;BME280;6540;50.858;7.232;2023-01-28T06:25:04;51949.34;;;-142.34;28.18
12951;BME280;6540;50.858;7.232;2023-01-28T06:27:29;51959.44;;;-142.34;28.54
12951;BME280;6540;50.858;7.232;2023-01-28T06:29:54;51955.41;;;-142.34;29.38
12951;BME280;6540;50.858;7.232;2023-01-28T06:32:20;51931.19;;;-142.34;28.88
12951;BME280;6540;50.858;7.232;2023-01-28T06:34:45;51943.31;;;-142.34;29.41
12951;BME280;6540;50.858;7.232;2023-01-28T06:37:12;51973.56;;;-142.34;29.42
12951;BME280;6540;50.858;7.232;2023-01-28T06:39:38;51953.41;;;-142.34;28.80
12951;BME280;6540;50.858;7.232;2023-01-28T06:42:03;51963.47;;;-142.34;29.17
12951;BME280;6540;50.858;7.232;2023-01-28T06:44:29;51959.44;;;-142.34;29.55
12951;BME280;6540;50.858;7.232;2023-01-28T06:46:54;51937.25;;;-142.34;29.07
12951;BME280;6540;50.858;7.232;2023-01-28T06:49:19;51983.66;;;-142.34;29.13
12951;BME280;6540;50.858;7.232;2023-01-28T06:51:46;51955.41;;;-142.34;28.63
12951;BME280;6540;50.858;7.232;2023-01-28T06:54:11;51943.31;;;-142.34;28.90
12951;BME280;6540;50.858;7.232;2023-01-28T06:56:36;51959.44;;;-142.34;29.32
12951;BME280;6540;50.858;7.232;2023-01-28T06:59:02;51959.44;;;-142.34;29.18
12951;BME280;6540;50.858;7.232;2023-01-28T07:01:27;51971.53;;;-142.34;30.41
12951;BME280;6540;50.858;7.232;2023-01-28T07:03:52;51951.38;;;-142.34;29.48
12951;BME280;6540;50.858;7.232;2023-01-28T07:06:18;51947.34;;;-142.34;29.54
12951;BME280;6540;50.858;7.232;2023-01-28T07:08:43;51977.59;;;-142.34;29.34
12951;BME280;6540;50.858;7.232;2023-01-28T07:11:08;51943.31;;;-142.34;29.42
12951;BME280;6540;50.858;7.232;2023-01-28T07:13:34;51959.44;;;-142.34;28.76
12951;BME280;6540;50.858;7.232;2023-01-28T07:16:00;51951.38;;;-142.34;29.51
12951;BME280;6540;50.858;7.232;2023-01-28T07:18:25;51951.38;;;-142.34;29.80
12951;BME280;6540;50.858;7.232;2023-01-28T07:20:51;51967.50;;;-142.34;28.91
12951;BME280;6540;50.858;7.232;2023-01-28T07:23:16;51967.50;;;-142.34;29.60
12951;BME280;6540;50.858;7.232;2023-01-28T07:25:42;51989.69;;;-142.34;28.51
12951;BME280;6540;50.858;7.232;2023-01-28T07:28:07;51955.41;;;-142.34;28.49
12951;BME280;6540;50.858;7.232;2023-01-28T07:30:32;51951.38;;;-142.34;28.44
12951;BME280;6540;50.858;7.232;2023-01-28T07:32:58;51939.28;;;-142.34;29.41
12951;BME280;6540;50.858;7.232;2023-01-28T07:35:24;51939.28;;;-142.34;28.81
12951;BME280;6540;50.858;7.232;2023-01-28T07:37:56;51971.53;;;-142.34;29.19
12951;BME280;6540;50.858;7.232;2023-01-28T07:40:22;51959.44;;;-142.34;28.86
12951;BME280;6540;50.858;7.232;2023-01-28T07:42:48;51979.63;;;-142.34;29.26
12951;BME280;6540;50.858;7.232;2023-01-28T07:45:14;51971.53;;;-142.34;28.98
12951;BME280;6540;50.858;7.232;2023-01-28T07:47:39;51995.75;;;-142.34;28.78
12951;BME280;6540;50.858;7.232;2023-01-28T07:50:05;51975.59;;;-142.34;28.95
12951;BME280;6540;50.858;7.232;2023-01-28T07:52:30;51979.63;;;-142.34;29.12
12951;BME280;6540;50.858;7.232;2023-01-28T07:55:02;51957.44;;;-142.34;29.10
12951;BME280;6540;50.858;7.232;2023-01-28T07:57:27;51975.59;;;-142.34;29.07
12951;BME280;6540;50.858;7.232;2023-01-28T07:59:54;51987.69;;;-142.34;29.14
12951;BME280;6540;50.858;7.232;2023-01-28T08:02:19;52007.84;;;-142.34;28.97
12951;BME280;6540;50.858;7.232;2023-01-28T08:04:45;51975.59;;;-142.34;28.95
12951;BME280;6540;50.858;7.232;2023-01-28T08:07:10;51983.66;;;-142.34;28.65
12951;BME280;6540;50.858;7.232;2023-01-28T08:09:36;51977.59;;;-142.34;28.47
12951;BME280;6540;50.858;7.232;2023-01-28T08:12:01;51983.66;;;-142.34;28.54
12951;BME280;6540;50.858;7.232;2023-01-28T08:14:27;51971.53;;;-142.34;28.44
12951;BME280;6540;50.858;7.232;2023-01-28T08:16:53;51953.41;;;-142.34;28.70
12951;BME280;6540;50.858;7.232;2023-01-28T08:19:18;51949.34;;;-142.34;28.38
12951;BME280;6540;50.858;7.232;2023-01-28T08:21:48;51941.28;;;-142.34;28.27
12951;BME280;6540;50.858;7.232;2023-01-28T08:24:14;51957.44;;;-142.34;28.32
12951;BME280;6540;50.858;7.232;2023-01-28T08:26:39;51979.63;;;-142.34;28.81
12951;BME280;6540;50.858;7.232;2023-01-28T08:29:04;51983.66;;;-142.34;28.51
12951;BME280;6540;50.858;7.232;2023-01-28T08:31:30;51983.66;;;-142.34;28.42
12951;BME280;6540;50.858;7.232;2023-01-28T08:33:55;51983.66;;;-142.34;28.54
12951;BME280;6540;50.858;7.232;2023-01-28T08:36:21;51957.44;;;-142.34;28.64
12951;BME280;6540;50.858;7.232;2023-01-28T08:38:51;51991.72;;;-142.34;28.48
12951;BME280;6540;50.858;7.232;2023-01-28T08:41:19;51985.66;;;-142.34;28.28
12951;BME280;6540;50.858;7.232;2023-01-28T08:43:46;51965.50;;;-142.34;28.57
12951;BME280;6540;50.858;7.232;2023-01-28T08:46:11;51963.47;;;-142.34;28.56
12951;BME280;6540;50.858;7.232;2023-01-28T08:48:37;51979.63;;;-142.34;28.78
12951;BME280;6540;50.858;7.232;2023-01-28T08:51:02;51983.66;;;-142.34;29.50
12951;BME280;6540;50.858;7.232;2023-01-28T08:53:28;51979.63;;;-142.34;28.69
12951;BME280;6540;50.858;7.232;2023-01-28T08:55:53;51991.72;;;-142.34;28.38
12951;BME280;6540;50.858;7.232;2023-01-28T08:58:20;51971.53;;;-142.34;28.08
12951;BME280;6540;50.858;7.232;2023-01-28T09:00:46;51965.50;;;-142.34;28.95
12951;BME280;6540;50.858;7.232;2023-01-28T09:03:11;52011.91;;;-142.34;28.94
12951;BME280;6540;50.858;7.232;2023-01-28T09:05:37;51969.53;;;-142.34;28.62
12951;BME280;6540;50.858;7.232;2023-01-28T09:08:05;51951.38;;;-142.34;28.50
12951;BME280;6540;50.858;7.232;2023-01-28T09:10:31;51975.59;;;-142.34;28.47
12951;BME280;6540;50.858;7.232;2023-01-28T09:12:56;51993.75;;;-142.34;28.35
12951;BME280;6540;50.858;7.232;2023-01-28T09:15:22;51995.75;;;-142.34;28.44
12951;BME280;6540;50.858;7.232;2023-01-28T09:17:47;52007.84;;;-142.34;29.09
12951;BME280;6540;50.858;7.232;2023-01-28T09:20:12;51963.47;;;-142.34;28.75
12951;BME280;6540;50.858;7.232;2023-01-28T09:22:38;51953.41;;;-142.34;29.04
12951;BME280;6540;50.858;7.232;2023-01-28T09:25:04;51933.22;;;-142.34;29.50
12951;BME280;6540;50.858;7.232;2023-01-28T09:27:29;51931.19;;;-142.34;29.73
12951;BME280;6540;50.858;7.232;2023-01-28T09:29:55;51961.47;;;-142.34;28.99
12951;BME280;6540;50.858;7.232;2023-01-28T09:32:20;51967.50;;;-142.34;29.13
12951;BME280;6540;50.858;7.232;2023-01-28T09:34:45;51955.41;;;-142.34;28.66
12951;BME280;6540;50.858;7.232;2023-01-28T09:37:11;51955.41;;;-142.34;28.31
12951;BME280;6540;50.858;7.232;2023-01-28T09:39:36;51943.31;;;-142.34;28.12
12951;BME280;6540;50.858;7.232;2023-01-28T09:47:42;51987.69;;;-142.34;27.95
12951;BME280;6540;50.858;7.232;2023-01-28T09:50:16;51955.41;;;-142.34;28.38
12951;BME280;6540;50.858;7.232;2023-01-28T09:52:43;51947.34;;;-142.34;27.57
12951;BME280;6540;50.858;7.232;2023-01-28T09:55:18;52003.81;;;-142.34;26.78
12951;BME280;6540;50.858;7.232;2023-01-28T09:57:51;51955.41;;;-142.34;26.84
12951;BME280;6540;50.858;7.232;2023-01-28T10:05:50;51935.25;;;-142.34;27.07
12951;BME280;6540;50.858;7.232;2023-01-28T10:11:16;51949.34;;;-142.34;27.97
12951;BME280;6540;50.858;7.232;2023-01-28T10:19:52;51951.38;;;-142.34;27.58
12951;BME280;6540;50.858;7.232;2023-01-28T10:22:27;51957.44;;;-142.34;27.32
12951;BME280;6540;50.858;7.232;2023-01-28T10:25:01;51961.47;;;-142.34;26.87
12951;BME280;6540;50.858;7.232;2023-01-28T10:27:32;51941.28;;;-142.34;27.33
12951;BME280;6540;50.858;7.232;2023-01-28T10:30:15;51945.31;;;-142.34;27.20
12951;BME280;6540;50.858;7.232;2023-01-28T10:32:50;51979.63;;;-142.34;26.58
12951;BME280;6540;50.858;7.232;2023-01-28T10:35:16;51979.63;;;-142.34;27.01
12951;BME280;6540;50.858;7.232;2023-01-28T10:37:42;51939.28;;;-142.34;26.63
12951;BME280;6540;50.858;7.232;2023-01-28T10:40:17;51941.28;;;-142.34;26.78
12951;BME280;6540;50.858;7.232;2023-01-28T10:42:43;52001.81;;;-142.34;26.75
12951;BME280;6540;50.858;7.232;2023-01-28T10:45:28;51915.06;;;-142.34;26.55
12951;BME280;6540;50.858;7.232;2023-01-28T10:48:02;51927.16;;;-142.34;27.92
12951;BME280;6540;50.858;7.232;2023-01-28T10:50:31;51947.34;;;-142.34;26.60
12951;BME280;6540;50.858;7.232;2023-01-28T10:52:58;51967.50;;;-142.34;26.51
12951;BME280;6540;50.858;7.232;2023-01-28T10:55:51;51961.47;;;-142.34;25.97
12951;BME280;6540;50.858;7.232;2023-01-28T10:58:24;51967.50;;;-142.34;26.17
12951;BME280;6540;50.858;7.232;2023-01-28T11:00:56;51937.25;;;-142.34;25.97
12951;BME280;6540;50.858;7.232;2023-01-28T11:03:25;51959.44;;;-142.34;26.07
12951;BME280;6540;50.858;7.232;2023-01-28T11:05:53;51975.59;;;-142.34;26.77
12951;BME280;6540;50.858;7.232;2023-01-28T11:08:20;51979.63;;;-142.34;26.68
12951;BME280;6540;50.858;7.232;2023-01-28T11:10:46;51915.06;;;-142.34;26.02
12951;BME280;6540;50.858;7.232;2023-01-28T11:13:20;51991.72;;;-142.34;26.29
12951;BME280;6540;50.858;7.232;2023-01-28T11:16:02;51931.19;;;-142.34;27.50
12951;BME280;6540;50.858;7.232;2023-01-28T11:18:34;51929.19;;;-142.34;26.79
12951;BME280;6540;50.858;7.232;2023-01-28T11:21:03;51967.50;;;-142.34;26.57
12951;BME280;6540;50.858;7.232;2023-01-28T11:23:32;51931.19;;;-142.34;26.75
12951;BME280;6540;50.858;7.232;2023-01-28T11:26:16;51951.38;;;-142.34;26.80
12951;BME280;6540;50.858;7.232;2023-01-28T11:28:42;51943.31;;;-142.34;26.56
12951;BME280;6540;50.858;7.232;2023-01-28T11:31:11;51894.88;;;-142.34;25.85
12951;BME280;6540;50.858;7.232;2023-01-28T11:33:43;51951.38;;;-142.34;25.88
12951;BME280;6540;50.858;7.232;2023-01-28T11:36:15;51961.47;;;-142.34;26.79
12951;BME280;6540;50.858;7.232;2023-01-28T11:41:18;51941.28;;;-142.34;26.47
12951;BME280;6540;50.858;7.232;2023-01-28T11:43:48;51943.31;;;-142.34;26.45
12951;BME280;6540;50.858;7.232;2023-01-28T11:51:57;51955.41;;;-142.34;25.83
12951;BME280;6540;50.858;7.232;2023-01-28T12:16:28;51957.44;;;-142.34;26.39
12951;BME280;6540;50.858;7.232;2023-01-28T12:18:59;51929.19;;;-142.34;26.32
12951;BME280;6540;50.858;7.232;2023-01-28T12:24:19;51955.41;;;-142.34;26.06
12951;BME280;6540;50.858;7.232;2023-01-28T12:27:00;51927.16;;;-142.34;26.23
12951;BME280;6540;50.858;7.232;2023-01-28T12:35:38;51933.22;;;-142.34;26.63
12951;BME280;6540;50.858;7.232;2023-01-28T12:38:15;51967.50;;;-142.34;26.15
12951;BME280;6540;50.858;7.232;2023-01-28T12:46:34;51953.41;;;-142.34;26.14
12951;BME280;6540;50.858;7.232;2023-01-28T12:52:04;51931.19;;;-142.34;25.87
12951;BME280;6540;50.858;7.232;2023-01-28T12:54:41;51951.38;;;-142.34;26.04
12951;BME280;6540;50.858;7.232;2023-01-28T12:57:15;51987.69;;;-142.34;27.68
12951;BME280;6540;50.858;7.232;2023-01-28T12:59:47;51919.09;;;-142.34;28.64
12951;BME280;6540;50.858;7.232;2023-01-28T13:02:24;51963.47;;;-142.34;26.85
12951;BME280;6540;50.858;7.232;2023-01-28T13:07:44;51961.47;;;-142.34;26.40
12951;BME280;6540;50.858;7.232;2023-01-28T13:10:21;51967.50;;;-142.34;26.50
12951;BME280;6540;50.858;7.232;2023-01-28T13:12:49;51927.16;;;-142.34;26.04
12951;BME280;6540;50.858;7.232;2023-01-28T13:15:17;51925.16;;;-142.34;25.49
12951;BME280;6540;50.858;7.232;2023-01-28T13:17:57;51987.69;;;-142.34;25.27
12951;BME280;6540;50.858;7.232;2023-01-28T13:20:50;51999.78;;;-142.34;26.92
12951;BME280;6540;50.858;7.232;2023-01-28T13:23:25;51939.28;;;-142.34;27.32
12951;BME280;6540;50.858;7.232;2023-01-28T13:25:52;51931.19;;;-142.34;27.53
12951;BME280;6540;50.858;7.232;2023-01-28T13:28:31;51935.25;;;-142.34;27.10
12951;BME280;6540;50.858;7.232;2023-01-28T13:31:06;51945.31;;;-142.34;25.90
12951;BME280;6540;50.858;7.232;2023-01-28T13:33:38;51951.38;;;-142.34;26.70
12951;BME280;6540;50.858;7.232;2023-01-28T13:41:49;51917.06;;;-142.34;26.79
12951;BME280;6540;50.858;7.232;2023-01-28T13:46:48;51927.16;;;-142.34;26.75
12951;BME280;6540;50.858;7.232;2023-01-28T13:49:21;51951.38;;;-142.34;26.41
12951;BME280;6540;50.858;7.232;2023-01-28T13:51:59;51925.16;;;-142.34;26.56
12951;BME280;6540;50.858;7.232;2023-01-28T13:54:27;51979.63;;;-142.34;27.13
12951;BME280;6540;50.858;7.232;2023-01-28T13:59:43;51931.19;;;-142.34;25.80
12951;BME280;6540;50.858;7.232;2023-01-28T14:10:59;51975.59;;;-142.34;24.63
12951;BME280;6540;50.858;7.232;2023-01-28T14:13:32;51995.75;;;-142.34;25.49
12951;BME280;6540;50.858;7.232;2023-01-28T14:16:04;51963.47;;;-142.34;25.00
12951;BME280;6540;50.858;7.232;2023-01-28T14:18:40;51955.41;;;-142.34;24.73
12951;BME280;6540;50.858;7.232;2023-01-28T14:21:18;51957.44;;;-142.34;25.60
12951;BME280;6540;50.858;7.232;2023-01-28T14:23:50;51937.25;;;-142.34;25.29
12951;BME280;6540;50.858;7.232;2023-01-28T14:31:52;51963.47;;;-142.34;25.37
12951;BME280;6540;50.858;7.232;2023-01-28T14:34:29;51957.44;;;-142.34;25.37
12951;BME280;6540;50.858;7.232;2023-01-28T14:37:07;51953.41;;;-142.34;25.35
12951;BME280;6540;50.858;7.232;2023-01-28T14:39:57;51953.41;;;-142.34;25.35
12951;BME280;6540;50.858;7.232;2023-01-28T14:42:27;51941.28;;;-142.34;25.36
12951;BME280;6540;50.858;7.232;2023-01-28T14:48:13;51975.59;;;-142.34;24.69
12951;BME280;6540;50.858;7.232;2023-01-28T14:51:01;51953.41;;;-142.34;24.50
12951;BME280;6540;50.858;7.232;2023-01-28T14:56:35;51931.19;;;-142.34;24.92
12951;BME280;6540;50.858;7.232;2023-01-28T14:59:27;51961.47;;;-142.34;25.11
12951;BME280;6540;50.858;7.232;2023-01-28T15:01:56;51902.97;;;-142.34;25.29
12951;BME280;6540;50.858;7.232;2023-01-28T15:06:47;51947.34;;;-142.34;25.66